createdAt,value
2023-03-03T00:00:55.453Z,101720.81
2023-03-03T00:03:24.152Z,101723.53
2023-03-03T00:05:51.536Z,101720.97
2023-03-03T00:08:18.825Z,101715.25
2023-03-03T00:10:45.302Z,101724.84
2023-03-03T00:13:23.173Z,101723.19
2023-03-03T00:15:50.261Z,101729.34
2023-03-03T00:18:37.256Z,101726.66
2023-03-03T00:21:09.008Z,101722.16
2023-03-03T00:23:37.686Z,101734.94
2023-03-03T00:26:18.634Z,101739.28
2023-03-03T00:28:52.640Z,101743.50
2023-03-03T00:31:21.845Z,101742.03
2023-03-03T00:33:54.773Z,101738.56
2023-03-03T00:36:38.077Z,101743.81
2023-03-03T00:39:31.077Z,101750.47
2023-03-03T00:41:58.401Z,101746.09
2023-03-03T00:44:25.718Z,101756.47
2023-03-03T00:46:54.205Z,101755.31
2023-03-03T00:49:26.951Z,101760.41
2023-03-03T00:51:54.322Z,101763.72
2023-03-03T00:54:20.762Z,101759.03
2023-03-03T00:56:47.340Z,101760.69
2023-03-03T00:59:13.764Z,101761.44
2023-03-03T01:01:40.261Z,101766.69
2023-03-03T01:04:06.729Z,101755.84
2023-03-03T01:06:33.221Z,101749.38
2023-03-03T01:08:59.843Z,101760.75
2023-03-03T01:11:28.544Z,101748.00
2023-03-03T01:13:55.063Z,101735.97
2023-03-03T01:16:21.729Z,101739.00
2023-03-03T01:18:48.225Z,101736.44
2023-03-03T01:21:14.765Z,101733.88
2023-03-03T01:23:41.360Z,101728.03
2023-03-03T01:26:07.780Z,101733.69
2023-03-03T01:28:35.022Z,101746.88
2023-03-03T01:31:05.775Z,101748.81
2023-03-03T01:33:33.583Z,101741.28
2023-03-03T01:36:00.129Z,101738.25
2023-03-03T01:38:26.579Z,101741.81
2023-03-03T01:40:57.592Z,101734.78
2023-03-03T01:43:26.986Z,101733.25
2023-03-03T01:45:53.873Z,101729.03
2023-03-03T01:48:25.768Z,101728.28
2023-03-03T01:50:56.347Z,101730.22
2023-03-03T01:53:29.022Z,101737.88
2023-03-03T01:55:55.692Z,101739.97
2023-03-03T01:58:26.784Z,101731.66
2023-03-03T02:01:05.605Z,101724.63
2023-03-03T02:03:32.151Z,101721.94
2023-03-03T02:06:01.361Z,101720.28
2023-03-03T02:08:35.397Z,101712.13
2023-03-03T02:11:02.821Z,101705.59
2023-03-03T02:13:29.274Z,101703.31
2023-03-03T02:15:56.764Z,101703.59
2023-03-03T02:18:23.307Z,101702.84
2023-03-03T02:21:04.503Z,101698.88
2023-03-03T02:23:36.378Z,101690.44
2023-03-03T02:26:08.316Z,101694.94
2023-03-03T02:28:36.317Z,101689.31
2023-03-03T02:31:03.410Z,101691.25
2023-03-03T02:33:29.962Z,101674.38
2023-03-03T02:35:56.459Z,101679.75
2023-03-03T02:38:33.132Z,101685.00
2023-03-03T02:41:24.588Z,101691.91
2023-03-03T02:44:02.258Z,101698.69
2023-03-03T02:46:31.809Z,101693.19
2023-03-03T02:48:58.417Z,101689.72
2023-03-03T02:51:24.918Z,101699.31
2023-03-03T02:53:51.389Z,101697.78
2023-03-03T02:56:17.876Z,101696.00
2023-03-03T02:58:44.464Z,101696.63
2023-03-03T03:01:11.224Z,101694.84
2023-03-03T03:03:38.036Z,101698.16
2023-03-03T03:06:04.761Z,101684.63
2023-03-03T03:08:31.160Z,101695.09
2023-03-03T03:10:57.835Z,101691.78
2023-03-03T03:13:24.737Z,101690.25
2023-03-03T03:15:51.455Z,101695.50
2023-03-03T03:18:18.505Z,101698.94
2023-03-03T03:20:46.908Z,101706.63
2023-03-03T03:23:14.840Z,101710.97
2023-03-03T03:25:45.424Z,101705.50
2023-03-03T03:28:13.452Z,101696.19
2023-03-03T03:30:40.373Z,101697.97
2023-03-03T03:33:07.037Z,101701.28
2023-03-03T03:35:34.620Z,101695.53
2023-03-03T03:38:01.074Z,101700.03
2023-03-03T03:40:27.596Z,101704.25
2023-03-03T03:42:54.489Z,101697.97
2023-03-03T03:45:20.941Z,101706.53
2023-03-03T03:47:47.725Z,101705.66
2023-03-03T03:50:14.306Z,101711.66
2023-03-03T03:52:40.746Z,101716.91
2023-03-03T03:55:07.540Z,101711.16
2023-03-03T03:57:34.001Z,101716.91
2023-03-03T04:00:00.443Z,101717.94
2023-03-03T04:02:26.997Z,101723.69
2023-03-03T04:04:53.473Z,101720.22
2023-03-03T04:07:19.898Z,101732.38
2023-03-03T04:09:46.339Z,101725.59
2023-03-03T04:12:12.890Z,101733.41
2023-03-03T04:14:39.326Z,101726.78
2023-03-03T04:17:05.759Z,101732.81
2023-03-03T04:19:32.170Z,101736.13
2023-03-03T04:21:58.594Z,101722.56
2023-03-03T04:24:25.080Z,101712.34
2023-03-03T04:26:51.577Z,101716.81
2023-03-03T04:29:18.001Z,101715.91
2023-03-03T04:31:44.423Z,101719.25
2023-03-03T04:34:10.840Z,101724.50
2023-03-03T04:36:37.261Z,101725.38
2023-03-03T04:39:03.743Z,101733.06
2023-03-03T04:41:30.398Z,101738.19
2023-03-03T04:43:56.804Z,101735.00
2023-03-03T04:46:23.242Z,101730.00
2023-03-03T04:48:49.679Z,101728.97
2023-03-03T04:51:16.663Z,101727.19
2023-03-03T04:53:43.071Z,101729.75
2023-03-03T04:56:09.546Z,101727.31
2023-03-03T04:58:35.972Z,101727.94
2023-03-03T05:01:02.375Z,101730.50
2023-03-03T05:03:28.820Z,101734.59
2023-03-03T05:05:55.238Z,101731.00
2023-03-03T05:08:21.714Z,101728.59
2023-03-03T05:10:52.366Z,101717.47
2023-03-03T05:13:18.802Z,101721.81
2023-03-03T05:15:50.562Z,101720.28
2023-03-03T05:18:18.969Z,101721.28
2023-03-03T05:20:45.420Z,101717.97
2023-03-03T05:23:11.905Z,101719.75
2023-03-03T05:25:41.118Z,101720.53
2023-03-03T05:28:07.556Z,101714.78
2023-03-03T05:30:34.301Z,101720.03
2023-03-03T05:33:01.181Z,101704.66
2023-03-03T05:35:27.695Z,101696.50
2023-03-03T05:37:54.907Z,101689.72
2023-03-03T05:40:21.657Z,101690.75
2023-03-03T05:42:48.130Z,101693.19
2023-03-03T05:45:14.557Z,101702.53
2023-03-03T05:47:41.011Z,101701.88
2023-03-03T05:50:07.737Z,101703.94
2023-03-03T05:52:34.174Z,101718.66
2023-03-03T05:55:00.581Z,101723.91
2023-03-03T05:57:27.524Z,101722.22
2023-03-03T05:59:53.976Z,101717.28
2023-03-03T06:02:20.522Z,101723.91
2023-03-03T06:04:46.928Z,101729.00
2023-03-03T06:07:13.357Z,101728.75
2023-03-03T06:09:39.886Z,101735.97
2023-03-03T06:12:06.503Z,101735.19
2023-03-03T06:14:32.985Z,101742.09
2023-03-03T06:16:59.464Z,101733.66
2023-03-03T06:19:25.951Z,101727.66
2023-03-03T06:21:52.405Z,101733.53
2023-03-03T06:24:18.881Z,101746.19
2023-03-03T06:26:45.342Z,101737.34
2023-03-03T06:29:12.014Z,101736.44
2023-03-03T06:31:39.237Z,101741.81
2023-03-03T06:34:05.668Z,101750.56
2023-03-03T06:36:32.105Z,101743.91
2023-03-03T06:38:58.504Z,101742.22
2023-03-03T06:41:24.932Z,101752.72
2023-03-03T06:43:51.547Z,101754.66
2023-03-03T06:46:18.000Z,101767.59
2023-03-03T06:48:44.428Z,101766.69
2023-03-03T06:51:23.069Z,101765.16
2023-03-03T06:53:53.075Z,101766.94
2023-03-03T06:56:19.519Z,101765.44
2023-03-03T06:58:45.943Z,101768.75
2023-03-03T07:01:21.470Z,101765.16
2023-03-03T07:03:47.950Z,101768.75
2023-03-03T07:06:26.301Z,101777.47
2023-03-03T07:08:53.133Z,101784.38
2023-03-03T07:11:22.104Z,101773.88
2023-03-03T07:13:50.989Z,101781.28
2023-03-03T07:16:18.923Z,101780.81
2023-03-03T07:19:01.455Z,101787.72
2023-03-03T07:21:33.744Z,101793.22
2023-03-03T07:24:01.606Z,101795.16
2023-03-03T07:26:33.170Z,101790.44
2023-03-03T07:29:26.643Z,101797.84
2023-03-03T07:31:55.029Z,101804.63
2023-03-03T07:34:23.666Z,101797.06
2023-03-03T07:36:52.387Z,101805.25
2023-03-03T07:39:26.561Z,101808.97
2023-03-03T07:41:54.675Z,101802.94
2023-03-03T07:44:35.078Z,101817.16
2023-03-03T07:47:16.093Z,101816.28
2023-03-03T07:49:43.215Z,101816.53
2023-03-03T07:52:42.792Z,101814.38
2023-03-03T07:55:25.966Z,101816.44
2023-03-03T07:57:54.691Z,101820.03
2023-03-03T08:00:21.088Z,101819.00
2023-03-03T08:02:55.400Z,101817.59
2023-03-03T08:05:21.927Z,101822.34
2023-03-03T08:07:50.581Z,101815.56
2023-03-03T08:10:44.641Z,101816.59
2023-03-03T08:13:22.601Z,101820.28
2023-03-03T08:15:53.458Z,101822.34
2023-03-03T08:18:30.823Z,101833.13
2023-03-03T08:21:08.276Z,101828.75
2023-03-03T08:23:34.689Z,101828.50
2023-03-03T08:26:01.098Z,101821.84
2023-03-03T08:28:27.522Z,101827.34
2023-03-03T08:31:05.598Z,101830.03
2023-03-03T08:33:39.716Z,101834.69
2023-03-03T08:36:09.521Z,101827.25
2023-03-03T08:38:36.332Z,101826.47
2023-03-03T08:41:02.793Z,101827.00
2023-03-03T08:43:29.673Z,101831.88
2023-03-03T08:45:59.443Z,101826.25
2023-03-03T08:48:27.097Z,101825.47
2023-03-03T08:50:53.719Z,101818.31
2023-03-03T08:53:21.226Z,101817.78
2023-03-03T08:55:47.985Z,101814.69
2023-03-03T08:58:15.828Z,101810.75
2023-03-03T09:00:42.368Z,101821.25
2023-03-03T09:03:08.793Z,101827.53
2023-03-03T09:05:37.009Z,101812.50
2023-03-03T09:08:04.061Z,101822.66
2023-03-03T09:10:31.972Z,101814.72
2023-03-03T09:13:01.331Z,101825.47
2023-03-03T09:15:30.474Z,101828.03
2023-03-03T09:18:08.359Z,101820.56
2023-03-03T09:20:37.545Z,101822.66
2023-03-03T09:23:25.957Z,101826.88
2023-03-03T09:25:52.853Z,101817.75
2023-03-03T09:28:25.369Z,101823.13
2023-03-03T09:30:53.562Z,101823.66
2023-03-03T09:33:31.118Z,101822.34
2023-03-03T09:36:19.028Z,101826.97
2023-03-03T09:38:45.965Z,101830.41
2023-03-03T09:41:31.474Z,101833.25
2023-03-03T09:44:17.260Z,101841.19
2023-03-03T09:47:28.924Z,101832.09
2023-03-03T09:49:58.130Z,101840.03
2023-03-03T09:52:39.490Z,101831.44
2023-03-03T09:55:37.214Z,101833.63
2023-03-03T09:58:24.787Z,101838.53
2023-03-03T10:01:13.809Z,101848.38
2023-03-03T10:03:56.293Z,101845.94
2023-03-03T10:06:36.878Z,101836.41
2023-03-03T10:09:54.334Z,101836.66
2023-03-03T10:12:27.416Z,101834.09
2023-03-03T10:15:12.497Z,101840.09
2023-03-03T10:17:44.952Z,101836.88
2023-03-03T10:20:23.099Z,101832.50
2023-03-03T10:22:55.893Z,101835.44
2023-03-03T10:25:34.486Z,101831.72
2023-03-03T10:28:19.686Z,101829.63
2023-03-03T10:31:11.750Z,101833.59
2023-03-03T10:33:49.767Z,101830.94
2023-03-03T10:36:38.066Z,101826.66
2023-03-03T10:39:15.503Z,101825.88
2023-03-03T10:41:47.776Z,101814.03
2023-03-03T10:44:42.007Z,101818.78
2023-03-03T10:47:51.604Z,101827.06
2023-03-03T10:50:28.247Z,101816.78
2023-03-03T10:52:58.195Z,101816.50
2023-03-03T10:55:43.403Z,101810.81
2023-03-03T10:58:31.663Z,101812.88
2023-03-03T11:01:04.499Z,101813.09
2023-03-03T11:03:55.981Z,101816.44
2023-03-03T11:06:26.962Z,101802.59
2023-03-03T11:09:03.360Z,101809.34
2023-03-03T11:11:41.004Z,101805.31
2023-03-03T11:14:23.959Z,101809.50
2023-03-03T11:17:12.029Z,101806.09
2023-03-03T11:19:45.611Z,101799.38
2023-03-03T11:22:25.537Z,101800.50
2023-03-03T11:24:58.503Z,101804.22
2023-03-03T11:27:43.677Z,101796.94
2023-03-03T11:30:12.928Z,101793.13
2023-03-03T11:32:42.534Z,101779.94
2023-03-03T11:35:34.213Z,101792.03
2023-03-03T11:38:20.719Z,101787.09
2023-03-03T11:41:01.103Z,101789.56
2023-03-03T11:43:44.186Z,101787.22
2023-03-03T11:46:20.104Z,101789.00
2023-03-03T11:49:29.213Z,101783.22
2023-03-03T11:52:21.879Z,101781.53
2023-03-03T11:54:54.179Z,101780.84
2023-03-03T11:57:39.839Z,101781.19
2023-03-03T12:00:21.584Z,101782.63
2023-03-03T12:03:13.256Z,101777.91
2023-03-03T12:05:57.403Z,101784.97
2023-03-03T12:08:34.054Z,101778.69
2023-03-03T12:11:25.645Z,101761.22
2023-03-03T12:14:02.353Z,101760.19
2023-03-03T12:16:44.917Z,101767.47
2023-03-03T12:19:34.613Z,101761.94
2023-03-03T12:22:19.781Z,101760.94
2023-03-03T12:24:56.490Z,101767.88
2023-03-03T12:27:47.845Z,101759.94
2023-03-03T12:30:35.530Z,101750.66
2023-03-03T12:33:28.078Z,101753.81
2023-03-03T12:36:09.730Z,101747.88
2023-03-03T12:38:55.403Z,101757.72
2023-03-03T12:41:27.905Z,101741.25
2023-03-03T12:44:22.890Z,101753.44
2023-03-03T12:47:15.448Z,101745.41
2023-03-03T12:50:01.170Z,101743.41
2023-03-03T12:52:51.141Z,101744.28
2023-03-03T12:55:26.054Z,101744.50
2023-03-03T12:58:14.834Z,101740.22
2023-03-03T13:00:44.250Z,101734.53
2023-03-03T13:03:43.620Z,101735.09
2023-03-03T13:06:36.962Z,101729.06
2023-03-03T13:09:13.228Z,101730.94
2023-03-03T13:12:09.521Z,101720.50
2023-03-03T13:14:55.585Z,101722.72
2023-03-03T13:17:28.554Z,101721.09
2023-03-03T13:20:00.168Z,101712.75
2023-03-03T13:22:40.198Z,101710.22
2023-03-03T13:25:44.743Z,101708.03
2023-03-03T13:28:18.662Z,101714.38
2023-03-03T13:30:49.175Z,101706.66
2023-03-03T13:33:28.863Z,101712.41
2023-03-03T13:36:01.389Z,101698.44
2023-03-03T13:38:37.411Z,101693.22
2023-03-03T13:41:14.797Z,101693.13
2023-03-03T13:43:46.861Z,101678.22
2023-03-03T13:46:33.374Z,101692.44
2023-03-03T13:49:13.931Z,101677.13
2023-03-03T13:51:58.006Z,101677.84
2023-03-03T13:54:49.315Z,101668.50
2023-03-03T13:57:18.643Z,101667.59
2023-03-03T13:59:56.589Z,101671.78
2023-03-03T14:02:51.196Z,101665.41
2023-03-03T14:05:31.404Z,101661.03
2023-03-03T14:08:01.077Z,101670.38
2023-03-03T14:10:35.241Z,101657.28
2023-03-03T14:13:08.090Z,101664.81
2023-03-03T14:15:42.308Z,101659.44
2023-03-03T14:18:25.908Z,101655.06
2023-03-03T14:20:59.065Z,101652.72
2023-03-03T14:23:32.808Z,101644.19
2023-03-03T14:26:00.466Z,101635.31
2023-03-03T14:28:29.131Z,101642.16
2023-03-03T14:30:57.726Z,101647.13
2023-03-03T14:33:30.900Z,101638.91
2023-03-03T14:35:57.457Z,101644.72
2023-03-03T14:38:33.935Z,101639.56
2023-03-03T14:41:14.552Z,101630.84
2023-03-03T14:43:43.996Z,101632.31
2023-03-03T14:46:36.417Z,101627.78
2023-03-03T14:49:29.589Z,101631.59
2023-03-03T14:52:05.788Z,101633.88
2023-03-03T14:54:37.918Z,101629.00
2023-03-03T14:57:08.148Z,101634.72
2023-03-03T14:59:34.649Z,101633.66
2023-03-03T15:02:24.461Z,101629.19
2023-03-03T15:04:51.078Z,101624.03
2023-03-03T15:07:37.943Z,101633.75
2023-03-03T15:10:07.645Z,101626.31
2023-03-03T15:12:36.417Z,101625.84
2023-03-03T15:15:18.634Z,101620.91
2023-03-03T15:17:51.030Z,101625.34
2023-03-03T15:20:37.530Z,101624.97
2023-03-03T15:23:09.582Z,101623.84
2023-03-03T15:25:43.828Z,101625.72
2023-03-03T15:28:36.805Z,101613.16
2023-03-03T15:31:19.117Z,101615.53
2023-03-03T15:34:21.934Z,101613.75
2023-03-03T15:37:33.105Z,101608.28
2023-03-03T15:40:17.967Z,101607.97
2023-03-03T15:43:10.556Z,101609.56
2023-03-03T15:45:56.042Z,101612.81
2023-03-03T15:48:31.682Z,101610.91
2023-03-03T15:51:17.274Z,101605.56
2023-03-03T15:54:18.805Z,101610.50
2023-03-03T15:56:51.286Z,101605.94
2023-03-03T15:59:25.034Z,101609.31
2023-03-03T16:02:16.879Z,101610.31
2023-03-03T16:04:51.440Z,101606.50
2023-03-03T16:08:09.184Z,101604.50
2023-03-03T16:11:05.181Z,101603.88
2023-03-03T16:13:49.901Z,101604.47
2023-03-03T16:16:31.126Z,101596.09
2023-03-03T16:19:28.501Z,101598.34
2023-03-03T16:22:18.250Z,101595.22
2023-03-03T16:25:35.944Z,101599.75
2023-03-03T16:28:19.947Z,101600.88
2023-03-03T16:30:52.605Z,101600.38
2023-03-03T16:33:22.083Z,101599.22
2023-03-03T16:35:59.883Z,101607.72
2023-03-03T16:38:39.051Z,101604.75
2023-03-03T16:41:11.018Z,101603.53
2023-03-03T16:43:53.833Z,101598.72
2023-03-03T16:46:31.689Z,101602.16
2023-03-03T16:49:35.787Z,101607.66
2023-03-03T16:52:10.705Z,101605.28
2023-03-03T16:54:54.397Z,101603.84
2023-03-03T16:57:39.769Z,101608.31
2023-03-03T17:00:19.232Z,101607.75
2023-03-03T17:03:00.162Z,101610.28
2023-03-03T17:05:44.686Z,101614.31
2023-03-03T17:08:26.852Z,101608.72
2023-03-03T17:11:28.494Z,101618.53
2023-03-03T17:14:33.688Z,101618.88
2023-03-03T17:17:03.223Z,101629.44
2023-03-03T17:19:57.352Z,101622.28
2023-03-03T17:22:53.296Z,101627.63
2023-03-03T17:25:23.672Z,101629.84
2023-03-03T17:27:55.371Z,101630.13
2023-03-03T17:30:27.889Z,101631.47
2023-03-03T17:33:21.006Z,101637.16
2023-03-03T17:36:03.302Z,101640.00
2023-03-03T17:38:55.324Z,101640.19
2023-03-03T17:41:31.443Z,101641.50
2023-03-03T17:44:30.066Z,101641.69
2023-03-03T17:47:24.607Z,101644.66
2023-03-03T17:49:57.220Z,101643.16
2023-03-03T17:52:45.708Z,101639.31
2023-03-03T17:55:40.170Z,101642.06
2023-03-03T17:58:45.100Z,101650.94
2023-03-03T18:01:41.988Z,101647.88
2023-03-03T18:04:34.523Z,101650.06
2023-03-03T18:07:16.960Z,101644.69
2023-03-03T18:10:14.589Z,101638.03
2023-03-03T18:13:05.100Z,101644.72
2023-03-03T18:16:11.244Z,101638.34
2023-03-03T18:19:10.837Z,101644.00
2023-03-03T18:22:00.376Z,101642.72
2023-03-03T18:24:30.479Z,101646.81
2023-03-03T18:27:13.403Z,101638.88
2023-03-03T18:29:40.291Z,101643.88
2023-03-03T18:32:21.881Z,101644.41
2023-03-03T18:34:48.598Z,101641.22
2023-03-03T18:37:33.781Z,101643.13
2023-03-03T18:40:00.303Z,101638.88
2023-03-03T18:42:40.450Z,101641.97
2023-03-03T18:45:30.148Z,101644.53
2023-03-03T18:48:12.102Z,101637.38
2023-03-03T18:50:38.626Z,101640.72
2023-03-03T18:53:08.216Z,101638.78
2023-03-03T18:55:45.959Z,101648.78
2023-03-03T18:58:15.603Z,101634.81
2023-03-03T19:00:45.992Z,101639.06
2023-03-03T19:03:33.695Z,101642.38
2023-03-03T19:06:06.701Z,101637.91
2023-03-03T19:08:57.348Z,101642.75
2023-03-03T19:11:49.847Z,101641.75
2023-03-03T19:14:29.984Z,101641.63
2023-03-03T19:17:18.741Z,101635.34
2023-03-03T19:20:15.713Z,101636.78
2023-03-03T19:22:47.963Z,101641.50
2023-03-03T19:25:22.504Z,101639.69
2023-03-03T19:28:20.927Z,101637.91
2023-03-03T19:30:53.130Z,101638.56
2023-03-03T19:33:31.096Z,101639.19
2023-03-03T19:36:18.471Z,101641.63
2023-03-03T19:39:07.063Z,101641.63
2023-03-03T19:42:01.527Z,101638.31
2023-03-03T19:44:46.955Z,101639.06
2023-03-03T19:47:38.947Z,101637.53
2023-03-03T19:50:31.677Z,101634.06
2023-03-03T19:53:19.807Z,101630.75
2023-03-03T19:56:02.503Z,101636.75
2023-03-03T19:58:43.657Z,101627.53
2023-03-03T20:01:44.502Z,101621.78
2023-03-03T20:04:20.401Z,101627.25
2023-03-03T20:06:50.194Z,101628.19
2023-03-03T20:09:38.376Z,101618.19
2023-03-03T20:12:16.051Z,101625.09
2023-03-03T20:15:20.014Z,101622.78
2023-03-03T20:18:03.303Z,101627.28
2023-03-03T20:20:48.866Z,101620.88
2023-03-03T20:23:54.510Z,101620.88
2023-03-03T20:26:43.817Z,101610.47
2023-03-03T20:29:40.566Z,101620.34
2023-03-03T20:32:13.321Z,101618.69
2023-03-03T20:35:21.269Z,101619.69
2023-03-03T20:37:51.500Z,101623.28
2023-03-03T20:40:31.034Z,101617.38
2023-03-03T20:43:19.314Z,101614.81
2023-03-03T20:46:00.716Z,101614.16
2023-03-03T20:49:02.195Z,101620.47
2023-03-03T20:51:43.860Z,101611.22
2023-03-03T20:54:19.374Z,101612.25
2023-03-03T20:56:56.903Z,101605.34
2023-03-03T20:59:43.863Z,101602.25
2023-03-03T21:03:04.637Z,101615.84
2023-03-03T21:05:32.236Z,101610.59
2023-03-03T21:08:04.183Z,101610.69
2023-03-03T21:10:34.039Z,101604.81
2023-03-03T21:13:29.471Z,101604.03
2023-03-03T21:16:09.830Z,101598.00
2023-03-03T21:18:37.474Z,101592.00
2023-03-03T21:21:04.463Z,101585.09
2023-03-03T21:23:30.931Z,101579.97
2023-03-03T21:25:58.084Z,101574.59
2023-03-03T21:28:27.724Z,101574.06
2023-03-03T21:31:15.492Z,101572.50
2023-03-03T21:33:54.055Z,101578.28
2023-03-03T21:36:23.707Z,101573.81
2023-03-03T21:38:52.682Z,101575.72
2023-03-03T21:41:20.570Z,101557.91
2023-03-03T21:43:49.397Z,101556.13
2023-03-03T21:46:20.899Z,101553.69
2023-03-03T21:48:47.625Z,101558.91
2023-03-03T21:51:14.348Z,101557.28
2023-03-03T21:53:44.714Z,101547.94
2023-03-03T21:56:13.752Z,101545.22
2023-03-03T21:58:41.493Z,101534.72
2023-03-03T22:01:08.232Z,101528.94
2023-03-03T22:03:35.270Z,101534.06
2023-03-03T22:06:02.678Z,101532.56
2023-03-03T22:08:29.387Z,101525.88
2023-03-03T22:10:58.191Z,101526.78
2023-03-03T22:13:26.114Z,101528.78
2023-03-03T22:15:53.289Z,101517.66
2023-03-03T22:18:20.134Z,101518.78
2023-03-03T22:20:48.070Z,101518.13
2023-03-03T22:23:15.416Z,101519.00
2023-03-03T22:25:42.141Z,101513.78
2023-03-03T22:28:08.824Z,101503.50
2023-03-03T22:30:36.526Z,101505.19
2023-03-03T22:33:03.226Z,101496.38
2023-03-03T22:35:29.802Z,101490.22
2023-03-03T22:37:56.381Z,101485.66
2023-03-03T22:40:22.964Z,101481.31
2023-03-03T22:42:49.569Z,101485.25
2023-03-03T22:45:16.198Z,101485.13
2023-03-03T22:47:42.779Z,101482.59
2023-03-03T22:50:09.895Z,101477.22
2023-03-03T22:52:36.421Z,101470.97
2023-03-03T22:55:04.331Z,101475.69
2023-03-03T22:57:31.318Z,101471.34
2023-03-03T22:59:58.136Z,101469.44
2023-03-03T23:02:24.818Z,101471.88
2023-03-03T23:04:58.153Z,101467.53
2023-03-03T23:07:26.421Z,101467.53
2023-03-03T23:09:53.013Z,101466.66
2023-03-03T23:12:20.594Z,101464.84
2023-03-03T23:14:47.108Z,101463.06
2023-03-03T23:17:13.664Z,101462.97
2023-03-03T23:19:40.285Z,101449.38
2023-03-03T23:22:06.977Z,101448.34
2023-03-03T23:24:33.531Z,101448.88
2023-03-03T23:27:00.807Z,101446.31
2023-03-03T23:29:27.432Z,101451.44
2023-03-03T23:31:54.197Z,101450.41
2023-03-03T23:34:21.172Z,101449.63
2023-03-03T23:36:47.924Z,101451.19
2023-03-03T23:39:15.374Z,101442.50
2023-03-03T23:41:41.977Z,101444.03
2023-03-03T23:44:08.588Z,101437.91
2023-03-03T23:46:35.167Z,101438.53
2023-03-03T23:49:02.179Z,101437.63
2023-03-03T23:51:29.232Z,101438.41
2023-03-03T23:53:56.256Z,101442.63
2023-03-03T23:56:22.946Z,101440.97
2023-03-03T23:58:49.756Z,101445.44
